createdAt,value
2022-08-02T00:01:25.953Z,97624.84
2022-08-02T00:03:56.017Z,97622.88
2022-08-02T00:06:26.258Z,97626.85
2022-08-02T00:08:56.178Z,97629.05
2022-08-02T00:11:26.377Z,97628.00
2022-08-02T00:13:56.501Z,97624.16
2022-08-02T00:16:37.739Z,97625.33
2022-08-02T00:19:11.337Z,97630.69
2022-08-02T00:21:41.666Z,97631.45
2022-08-02T00:24:29.970Z,97636.96
2022-08-02T00:27:03.588Z,97638.11
2022-08-02T00:29:42.601Z,97642.64
2022-08-02T00:32:24.243Z,97641.38
2022-08-02T00:34:54.295Z,97644.95
2022-08-02T00:37:24.376Z,97643.36
2022-08-02T00:39:54.777Z,97643.79
2022-08-02T00:42:24.744Z,97643.84
2022-08-02T00:44:54.581Z,97649.30
2022-08-02T00:47:24.835Z,97651.02
2022-08-02T00:49:54.898Z,97652.27
2022-08-02T00:52:25.617Z,97655.42
2022-08-02T00:54:58.337Z,97659.96
2022-08-02T00:57:28.736Z,97659.30
2022-08-02T01:00:01.657Z,97667.88
2022-08-02T01:02:31.821Z,97667.10
2022-08-02T01:05:02.057Z,97669.42
2022-08-02T01:07:32.215Z,97675.11
2022-08-02T01:10:02.377Z,97673.59
2022-08-02T01:12:32.857Z,97677.48
2022-08-02T01:15:08.298Z,97677.29
2022-08-02T01:17:45.177Z,97680.21
2022-08-02T01:20:34.815Z,97685.30
2022-08-02T01:23:23.376Z,97682.64
2022-08-02T01:26:12.858Z,97685.35
2022-08-02T01:28:49.945Z,97683.23
2022-08-02T01:31:26.617Z,97679.61
2022-08-02T01:34:03.464Z,97676.59
2022-08-02T01:36:40.777Z,97669.92
2022-08-02T01:39:27.323Z,97670.75
2022-08-02T01:42:03.457Z,97671.19
2022-08-02T01:44:37.657Z,97673.13
2022-08-02T01:47:19.421Z,97669.67
2022-08-02T01:49:53.538Z,97670.29
2022-08-02T01:52:27.336Z,97671.75
2022-08-02T01:55:02.344Z,97670.27
2022-08-02T01:57:45.696Z,97667.75
2022-08-02T02:00:18.536Z,97664.95
2022-08-02T02:02:50.217Z,97662.67
2022-08-02T02:05:23.457Z,97661.13
2022-08-02T02:07:56.457Z,97659.95
2022-08-02T02:10:39.535Z,97660.58
2022-08-02T02:13:19.176Z,97658.84
2022-08-02T02:16:02.097Z,97661.70
2022-08-02T02:18:34.697Z,97661.48
2022-08-02T02:21:14.939Z,97657.11
2022-08-02T02:23:55.096Z,97658.05
2022-08-02T02:26:31.446Z,97660.16
2022-08-02T02:29:13.657Z,97659.65
2022-08-02T02:31:49.064Z,97658.17
2022-08-02T02:34:28.423Z,97658.25
2022-08-02T02:37:12.255Z,97661.34
2022-08-02T02:39:54.697Z,97659.79
2022-08-02T02:42:36.057Z,97661.77
2022-08-02T02:45:09.576Z,97664.33
2022-08-02T02:47:49.938Z,97663.14
2022-08-02T02:50:21.376Z,97665.83
2022-08-02T02:53:02.217Z,97667.03
2022-08-02T02:55:33.416Z,97671.98
2022-08-02T02:58:14.335Z,97676.14
2022-08-02T03:01:04.888Z,97678.55
2022-08-02T03:03:36.297Z,97683.27
2022-08-02T03:06:16.417Z,97682.10
2022-08-02T03:08:50.057Z,97684.12
2022-08-02T03:11:31.015Z,97685.11
2022-08-02T03:14:12.659Z,97683.74
2022-08-02T03:16:47.979Z,97688.14
2022-08-02T03:19:19.059Z,97687.15
2022-08-02T03:21:59.416Z,97686.12
2022-08-02T03:24:40.861Z,97684.92
2022-08-02T03:27:11.174Z,97684.63
2022-08-02T03:29:41.378Z,97682.73
2022-08-02T03:32:21.498Z,97685.41
2022-08-02T03:34:51.826Z,97684.52
2022-08-02T03:37:33.704Z,97683.54
2022-08-02T03:40:15.336Z,97690.73
2022-08-02T03:42:45.695Z,97690.84
2022-08-02T03:45:16.906Z,97693.33
2022-08-02T03:47:47.896Z,97693.33
2022-08-02T03:50:19.256Z,97691.82
2022-08-02T03:52:49.617Z,97693.66
2022-08-02T03:55:20.978Z,97693.67
2022-08-02T03:57:51.785Z,97698.15
2022-08-02T04:00:24.190Z,97701.09
2022-08-02T04:02:57.545Z,97702.58
2022-08-02T04:05:26.417Z,97710.50
2022-08-02T04:08:34.409Z,97712.48
2022-08-02T04:11:06.897Z,97717.98
2022-08-02T04:13:38.656Z,97724.90
2022-08-02T04:16:13.217Z,97722.80
2022-08-02T04:18:50.938Z,97719.91
2022-08-02T04:21:24.897Z,97721.15
2022-08-02T04:23:56.936Z,97723.13
2022-08-02T04:26:28.447Z,97721.38
2022-08-02T04:29:01.349Z,97723.50
2022-08-02T04:31:32.025Z,97724.86
2022-08-02T04:34:02.514Z,97724.20
2022-08-02T04:36:33.140Z,97728.72
2022-08-02T04:39:03.393Z,97730.48
2022-08-02T04:41:43.707Z,97728.21
2022-08-02T04:44:14.839Z,97732.52
2022-08-02T04:46:48.258Z,97737.81
2022-08-02T04:49:18.384Z,97743.42
2022-08-02T04:51:48.578Z,97744.55
2022-08-02T04:54:18.739Z,97749.11
2022-08-02T04:56:49.058Z,97755.91
2022-08-02T04:59:19.178Z,97753.35
2022-08-02T05:01:49.338Z,97752.88
2022-08-02T05:04:19.660Z,97752.87
2022-08-02T05:06:50.136Z,97753.52
2022-08-02T05:09:20.136Z,97751.27
2022-08-02T05:11:53.298Z,97752.90
2022-08-02T05:14:25.457Z,97755.14
2022-08-02T05:16:55.578Z,97752.80
2022-08-02T05:19:25.577Z,97756.51
2022-08-02T05:21:56.016Z,97761.14
2022-08-02T05:24:26.255Z,97758.65
2022-08-02T05:26:56.380Z,97757.40
2022-08-02T05:29:27.496Z,97761.52
2022-08-02T05:31:57.897Z,97763.52
2022-08-02T05:34:30.069Z,97762.30
2022-08-02T05:37:00.663Z,97762.11
2022-08-02T05:39:31.875Z,97768.67
2022-08-02T05:42:02.097Z,97769.83
2022-08-02T05:44:32.266Z,97774.34
2022-08-02T05:47:03.589Z,97773.12
2022-08-02T05:49:33.768Z,97772.79
2022-08-02T05:52:11.782Z,97777.34
2022-08-02T05:54:50.736Z,97781.11
2022-08-02T05:57:33.106Z,97784.63
2022-08-02T06:00:17.498Z,97789.86
2022-08-02T06:03:05.577Z,97791.85
2022-08-02T06:05:40.505Z,97792.30
2022-08-02T06:08:13.219Z,97792.54
2022-08-02T06:10:45.460Z,97796.15
2022-08-02T06:13:16.778Z,97797.90
2022-08-02T06:15:53.308Z,97800.70
2022-08-02T06:18:28.164Z,97802.06
2022-08-02T06:22:32.694Z,97805.83
2022-08-02T06:23:57.482Z,97811.39
2022-08-02T06:26:29.102Z,97816.10
2022-08-02T06:28:59.698Z,97817.50
2022-08-02T06:31:30.258Z,97822.04
2022-08-02T06:34:01.860Z,97822.63
2022-08-02T06:36:38.739Z,97826.33
2022-08-02T06:39:15.015Z,97826.27
2022-08-02T06:41:49.738Z,97825.41
2022-08-02T06:47:16.546Z,97832.15
2022-08-02T06:49:53.012Z,97833.25
2022-08-02T06:52:29.391Z,97832.75
2022-08-02T06:55:03.060Z,97836.58
2022-08-02T06:57:33.698Z,97834.20
2022-08-02T07:00:09.028Z,97834.31
2022-08-02T07:02:39.850Z,97830.27
2022-08-02T07:05:13.417Z,97837.70
2022-08-02T07:07:43.419Z,97836.56
2022-08-02T07:10:14.735Z,97838.39
2022-08-02T07:12:47.178Z,97838.52
2022-08-02T07:15:18.099Z,97837.92
2022-08-02T07:17:48.338Z,97834.19
2022-08-02T07:20:18.619Z,97843.08
2022-08-02T07:22:48.817Z,97841.59
2022-08-02T07:25:19.587Z,97842.40
2022-08-02T07:27:51.226Z,97843.09
2022-08-02T07:30:21.421Z,97842.36
2022-08-02T07:32:51.419Z,97845.95
2022-08-02T07:35:22.736Z,97843.04
2022-08-02T07:37:58.092Z,97846.58
2022-08-02T07:40:35.139Z,97847.55
2022-08-02T07:43:05.233Z,97848.27
2022-08-02T07:45:36.085Z,97846.64
2022-08-02T07:48:15.578Z,97848.35
2022-08-02T07:50:49.022Z,97843.06
2022-08-02T07:53:19.188Z,97847.36
2022-08-02T07:55:49.345Z,97842.75
2022-08-02T07:58:20.459Z,97845.68
2022-08-02T08:00:52.299Z,97847.06
2022-08-02T08:03:23.140Z,97850.69
2022-08-02T08:05:54.139Z,97845.98
2022-08-02T08:08:24.256Z,97847.41
2022-08-02T08:10:54.297Z,97847.27
2022-08-02T08:13:24.298Z,97847.45
2022-08-02T08:15:54.661Z,97845.34
2022-08-02T08:18:24.696Z,97840.10
2022-08-02T08:20:55.018Z,97842.87
2022-08-02T08:23:27.660Z,97837.95
2022-08-02T08:25:58.105Z,97840.99
2022-08-02T08:28:28.301Z,97844.77
2022-08-02T08:30:59.178Z,97854.45
2022-08-02T08:33:29.504Z,97850.95
2022-08-02T08:35:59.379Z,97854.25
2022-08-02T08:38:32.658Z,97855.04
2022-08-02T08:41:03.111Z,97858.86
2022-08-02T08:43:33.747Z,97862.37
2022-08-02T08:46:03.978Z,97859.48
2022-08-02T08:48:38.659Z,97860.14
2022-08-02T08:51:15.261Z,97866.58
2022-08-02T08:53:49.616Z,97866.23
2022-08-02T08:56:19.976Z,97866.30
2022-08-02T08:58:50.380Z,97867.16
2022-08-02T09:01:23.230Z,97871.94
2022-08-02T09:03:53.513Z,97875.02
2022-08-02T09:06:23.881Z,97878.43
2022-08-02T09:08:54.422Z,97879.66
2022-08-02T09:11:26.778Z,97878.89
2022-08-02T09:13:58.620Z,97878.79
2022-08-02T09:16:36.660Z,97885.23
2022-08-02T09:19:21.018Z,97885.87
2022-08-02T09:21:52.220Z,97883.12
2022-08-02T09:24:24.379Z,97888.64
2022-08-02T09:26:54.588Z,97889.42
2022-08-02T09:29:25.657Z,97893.08
2022-08-02T09:32:04.257Z,97894.88
2022-08-02T09:34:50.537Z,97891.91
2022-08-02T09:37:28.459Z,97898.08
2022-08-02T09:40:00.340Z,97891.14
2022-08-02T09:42:31.408Z,97893.13
2022-08-02T09:45:03.337Z,97894.27
2022-08-02T09:47:37.336Z,97895.63
2022-08-02T09:50:14.597Z,97895.38
2022-08-02T09:52:45.095Z,97898.61
2022-08-02T09:55:16.459Z,97898.14
2022-08-02T09:57:50.983Z,97899.16
2022-08-02T10:00:36.975Z,97896.27
2022-08-02T10:03:14.894Z,97891.45
2022-08-02T10:05:56.183Z,97883.38
2022-08-02T10:08:33.785Z,97892.13
2022-08-02T10:11:04.619Z,97889.41
2022-08-02T10:13:36.778Z,97892.40
2022-08-02T10:16:08.097Z,97892.19
2022-08-02T10:18:39.849Z,97884.49
2022-08-02T10:21:16.939Z,97883.73
2022-08-02T10:23:49.857Z,97879.70
2022-08-02T10:26:21.455Z,97878.61
2022-08-02T10:28:54.419Z,97879.48
2022-08-02T10:31:28.184Z,97881.77
2022-08-02T10:34:01.977Z,97884.43
2022-08-02T10:36:34.297Z,97886.23
2022-08-02T10:39:04.694Z,97883.48
2022-08-02T10:41:46.422Z,97878.70
2022-08-02T10:44:25.404Z,97875.41
2022-08-02T10:47:22.416Z,97875.05
2022-08-02T10:49:55.224Z,97882.70
2022-08-02T10:52:28.817Z,97880.76
2022-08-02T10:55:00.341Z,97879.98
2022-08-02T10:57:31.824Z,97876.41
2022-08-02T11:00:10.761Z,97873.66
2022-08-02T11:02:44.020Z,97876.02
2022-08-02T11:05:17.138Z,97880.52
2022-08-02T11:07:56.617Z,97881.80
2022-08-02T11:10:47.934Z,97882.08
2022-08-02T11:13:20.146Z,97883.15
2022-08-02T11:16:00.979Z,97879.66
2022-08-02T11:19:06.773Z,97881.56
2022-08-02T11:21:37.859Z,97873.30
2022-08-02T11:24:29.151Z,97876.95
2022-08-02T11:27:03.417Z,97873.70
2022-08-02T11:29:39.496Z,97871.82
2022-08-02T11:32:16.818Z,97870.82
2022-08-02T11:34:49.456Z,97872.00
2022-08-02T11:37:29.059Z,97874.84
2022-08-02T11:39:59.338Z,97877.80
2022-08-02T11:42:34.995Z,97871.32
2022-08-02T11:45:07.379Z,97869.33
2022-08-02T11:47:48.896Z,97869.13
2022-08-02T11:50:20.582Z,97872.89
2022-08-02T11:53:00.380Z,97869.98
2022-08-02T11:55:32.538Z,97871.91
2022-08-02T11:58:10.020Z,97872.27
2022-08-02T12:00:40.737Z,97872.32
2022-08-02T12:03:13.534Z,97869.77
2022-08-02T12:06:05.261Z,97874.05
2022-08-02T12:08:38.696Z,97873.24
2022-08-02T12:11:08.975Z,97879.73
2022-08-02T12:13:57.342Z,97876.44
2022-08-02T12:16:53.417Z,97880.21
2022-08-02T12:19:26.496Z,97874.60
2022-08-02T12:22:14.853Z,97875.44
2022-08-02T12:24:47.739Z,97877.36
2022-08-02T12:27:39.064Z,97873.24
2022-08-02T12:30:13.186Z,97871.13
2022-08-02T12:32:44.456Z,97870.20
2022-08-02T12:35:26.724Z,97872.61
2022-08-02T12:37:57.698Z,97871.91
2022-08-02T12:40:31.902Z,97868.21
2022-08-02T12:43:03.656Z,97871.23
2022-08-02T12:45:49.203Z,97873.09
2022-08-02T12:48:38.093Z,97881.02
2022-08-02T12:51:24.299Z,97882.70
2022-08-02T12:53:59.978Z,97877.96
2022-08-02T12:56:33.522Z,97880.59
2022-08-02T12:59:07.655Z,97879.05
2022-08-02T13:01:37.940Z,97879.36
2022-08-02T13:04:13.747Z,97874.20
2022-08-02T13:06:45.599Z,97870.40
2022-08-02T13:09:17.619Z,97869.83
2022-08-02T13:11:47.897Z,97871.86
2022-08-02T13:14:18.219Z,97873.23
2022-08-02T13:16:49.097Z,97870.86
2022-08-02T13:19:20.839Z,97865.52
2022-08-02T13:22:11.212Z,97867.11
2022-08-02T13:24:55.704Z,97865.36
2022-08-02T13:27:28.598Z,97871.48
2022-08-02T13:30:03.935Z,97871.90
2022-08-02T13:32:34.137Z,97874.17
2022-08-02T13:35:05.028Z,97875.61
2022-08-02T13:37:39.998Z,97878.23
2022-08-02T13:40:21.826Z,97875.98
2022-08-02T13:42:52.504Z,97877.23
2022-08-02T13:45:22.896Z,97878.90
2022-08-02T13:48:03.278Z,97878.10
2022-08-02T13:50:39.746Z,97874.02
2022-08-02T13:53:10.976Z,97872.11
2022-08-02T13:55:43.401Z,97876.06
2022-08-02T13:58:12.663Z,97875.45
2022-08-02T14:00:42.898Z,97874.55
2022-08-02T14:03:14.889Z,97873.52
2022-08-02T14:05:48.201Z,97869.03
2022-08-02T14:08:20.289Z,97874.05
2022-08-02T14:10:51.586Z,97871.86
2022-08-02T14:13:21.788Z,97867.42
2022-08-02T14:15:52.341Z,97862.83
2022-08-02T14:18:22.341Z,97859.62
2022-08-02T14:20:52.462Z,97863.98
2022-08-02T14:23:49.730Z,97860.34
2022-08-02T14:26:26.865Z,97863.32
2022-08-02T14:28:57.787Z,97857.72
2022-08-02T14:31:29.314Z,97863.79
2022-08-02T14:34:02.456Z,97859.81
2022-08-02T14:36:32.657Z,97853.42
2022-08-02T14:39:04.179Z,97852.06
2022-08-02T14:41:58.388Z,97853.18
2022-08-02T14:44:26.302Z,97856.95
2022-08-02T14:46:57.542Z,97855.73
2022-08-02T14:49:27.954Z,97859.81
2022-08-02T14:51:58.214Z,97864.67
2022-08-02T14:54:31.369Z,97863.46
2022-08-02T14:57:04.777Z,97866.32
2022-08-02T14:59:35.580Z,97861.77
2022-08-02T15:02:14.055Z,97860.36
2022-08-02T15:04:44.858Z,97856.17
2022-08-02T15:07:25.816Z,97853.48
2022-08-02T15:10:02.828Z,97851.73
2022-08-02T15:12:42.907Z,97854.16
2022-08-02T15:15:14.073Z,97856.62
2022-08-02T15:17:49.096Z,97858.98
2022-08-02T15:20:25.672Z,97862.98
2022-08-02T15:22:56.737Z,97858.20
2022-08-02T15:25:28.338Z,97862.38
2022-08-02T15:28:01.539Z,97862.06
2022-08-02T15:30:31.777Z,97857.02
2022-08-02T15:33:02.028Z,97855.20
2022-08-02T15:35:32.258Z,97852.22
2022-08-02T15:38:02.866Z,97854.14
2022-08-02T15:40:32.976Z,97852.58
2022-08-02T15:43:03.426Z,97853.95
2022-08-02T15:45:34.825Z,97852.70
2022-08-02T15:48:08.857Z,97857.26
2022-08-02T15:50:39.017Z,97854.25
2022-08-02T15:53:09.339Z,97859.58
2022-08-02T15:55:40.004Z,97859.39
2022-08-02T15:58:23.583Z,97860.98
2022-08-02T16:00:54.387Z,97862.70
2022-08-02T16:03:24.538Z,97865.36
2022-08-02T16:05:54.617Z,97859.80
2022-08-02T16:08:24.787Z,97862.80
2022-08-02T16:10:54.858Z,97860.06
2022-08-02T16:13:52.914Z,97858.98
2022-08-02T16:16:25.072Z,97861.94
2022-08-02T16:18:56.298Z,97861.66
2022-08-02T16:21:28.855Z,97866.95
2022-08-02T16:24:02.294Z,97863.77
2022-08-02T16:26:34.067Z,97865.25
2022-08-02T16:29:05.659Z,97866.51
2022-08-02T16:31:40.050Z,97867.87
2022-08-02T16:34:14.899Z,97871.33
2022-08-02T16:36:46.341Z,97872.52
2022-08-02T16:39:19.175Z,97874.02
2022-08-02T16:41:51.852Z,97870.95
2022-08-02T16:44:29.023Z,97875.92
2022-08-02T16:47:14.907Z,97880.21
2022-08-02T16:50:06.454Z,97878.27
2022-08-02T16:52:36.696Z,97875.63
2022-08-02T16:55:11.561Z,97876.29
2022-08-02T16:57:43.330Z,97875.88
2022-08-02T17:00:16.879Z,97878.15
2022-08-02T17:02:47.695Z,97875.95
2022-08-02T17:05:18.059Z,97883.03
2022-08-02T17:08:15.167Z,97885.86
2022-08-02T17:10:38.945Z,97889.92
2022-08-02T17:13:18.981Z,97887.79
2022-08-02T17:16:16.161Z,97892.08
2022-08-02T17:18:42.783Z,97897.73
2022-08-02T17:21:13.778Z,97893.67
2022-08-02T17:24:07.962Z,97894.98
2022-08-02T17:26:39.655Z,97895.64
2022-08-02T17:29:16.318Z,97899.48
2022-08-02T17:32:04.686Z,97898.59
2022-08-02T17:34:39.257Z,97904.27
2022-08-02T17:37:10.177Z,97902.67
2022-08-02T17:39:44.279Z,97907.04
2022-08-02T17:42:25.656Z,97907.59
2022-08-02T17:45:07.000Z,97909.38
2022-08-02T17:48:04.317Z,97907.81
2022-08-02T17:50:35.787Z,97908.79
2022-08-02T17:53:06.579Z,97910.09
2022-08-02T17:55:42.307Z,97907.86
2022-08-02T17:58:12.944Z,97907.08
2022-08-02T18:00:45.336Z,97906.87
2022-08-02T18:03:15.461Z,97909.74
2022-08-02T18:05:55.162Z,97911.42
2022-08-02T18:08:25.619Z,97909.42
2022-08-02T18:11:00.777Z,97910.78
2022-08-02T18:13:33.094Z,97911.94
2022-08-02T18:16:06.826Z,97910.42
2022-08-02T18:18:52.540Z,97913.58
2022-08-02T18:21:25.215Z,97917.25
2022-08-02T18:23:58.503Z,97913.86
2022-08-02T18:26:30.137Z,97913.85
2022-08-02T18:29:04.438Z,97914.97
2022-08-02T18:31:39.669Z,97919.70
2022-08-02T18:34:10.018Z,97916.01
2022-08-02T18:36:47.350Z,97915.97
2022-08-02T18:39:23.781Z,97918.27
2022-08-02T18:41:54.820Z,97921.23
2022-08-02T18:44:26.061Z,97923.48
2022-08-02T18:46:57.139Z,97925.42
2022-08-02T18:49:46.200Z,97926.76
2022-08-02T18:52:31.117Z,97930.20
2022-08-02T18:55:17.383Z,97928.95
2022-08-02T18:58:18.223Z,97932.16
2022-08-02T19:00:51.839Z,97936.10
2022-08-02T19:03:24.699Z,97939.75
2022-08-02T19:05:54.979Z,97943.14
2022-08-02T19:08:27.445Z,97946.41
2022-08-02T19:10:57.858Z,97949.57
2022-08-02T19:13:32.978Z,97955.73
2022-08-02T19:16:09.179Z,97958.65
2022-08-02T19:18:39.337Z,97963.66
2022-08-02T19:21:09.580Z,97966.63
2022-08-02T19:23:52.959Z,97966.08
2022-08-02T19:26:25.885Z,97971.21
2022-08-02T19:28:56.098Z,97970.00
2022-08-02T19:31:28.256Z,97970.73
2022-08-02T19:34:07.222Z,97969.46
2022-08-02T19:36:40.056Z,97968.03
2022-08-02T19:39:16.772Z,97968.91
2022-08-02T19:41:47.339Z,97970.00
2022-08-02T19:44:25.302Z,97969.23
2022-08-02T19:47:00.378Z,97973.80
2022-08-02T19:49:40.285Z,97968.99
2022-08-02T19:52:21.610Z,97969.80
2022-08-02T19:54:59.660Z,97973.74
2022-08-02T19:57:47.507Z,97968.19
2022-08-02T20:00:21.499Z,97966.02
2022-08-02T20:02:52.017Z,97969.59
2022-08-02T20:05:23.762Z,97969.92
2022-08-02T20:07:56.445Z,97968.65
2022-08-02T20:10:27.728Z,97965.59
2022-08-02T20:12:58.538Z,97963.58
2022-08-02T20:15:51.757Z,97964.65
2022-08-02T20:18:26.604Z,97968.09
2022-08-02T20:20:57.416Z,97968.38
2022-08-02T20:23:33.082Z,97967.41
2022-08-02T20:26:06.777Z,97967.33
2022-08-02T20:28:39.378Z,97966.56
2022-08-02T20:31:10.501Z,97964.25
2022-08-02T20:33:55.358Z,97962.13
2022-08-02T20:36:27.229Z,97966.30
2022-08-02T20:38:57.659Z,97966.90
2022-08-02T20:44:30.670Z,97966.88
2022-08-02T20:47:01.579Z,97965.29
2022-08-02T20:49:40.855Z,97968.41
2022-08-02T20:52:23.377Z,97963.58
2022-08-02T20:54:54.419Z,97960.52
2022-08-02T20:57:48.705Z,97959.70
2022-08-02T21:00:16.659Z,97959.91
2022-08-02T21:02:46.975Z,97959.35
2022-08-02T21:05:18.562Z,97956.98
2022-08-02T21:07:53.565Z,97955.56
2022-08-02T21:10:25.658Z,97953.31
2022-08-02T21:12:56.017Z,97949.32
2022-08-02T21:15:29.739Z,97946.40
2022-08-02T21:18:12.968Z,97948.02
2022-08-02T21:20:53.898Z,97953.20
2022-08-02T21:23:24.058Z,97952.90
2022-08-02T21:26:00.735Z,97954.02
2022-08-02T21:28:35.074Z,97952.00
2022-08-02T21:31:16.458Z,97955.09
2022-08-02T21:33:57.239Z,97958.33
2022-08-02T21:36:32.679Z,97958.23
2022-08-02T21:39:05.654Z,97955.98
2022-08-02T21:41:45.943Z,97961.21
2022-08-02T21:44:18.589Z,97960.73
2022-08-02T21:46:50.477Z,97958.13
2022-08-02T21:52:12.217Z,97960.78
2022-08-02T21:54:45.594Z,97956.59
2022-08-02T21:57:19.626Z,97958.77
2022-08-02T21:59:55.516Z,97955.77
2022-08-02T22:02:30.478Z,97956.60
2022-08-02T22:05:02.726Z,97955.11
2022-08-02T22:07:38.341Z,97951.16
2022-08-02T22:10:10.381Z,97949.42
2022-08-02T22:12:41.340Z,97947.48
2022-08-02T22:15:12.305Z,97949.44
2022-08-02T22:17:52.037Z,97951.67
2022-08-02T22:20:24.058Z,97951.73
2022-08-02T22:22:55.060Z,97951.52
2022-08-02T22:25:36.280Z,97953.30
2022-08-02T22:28:38.367Z,97954.35
2022-08-02T22:31:03.982Z,97955.35
2022-08-02T22:34:00.975Z,97959.55
2022-08-02T22:36:35.340Z,97961.49
2022-08-02T22:39:18.665Z,97964.48
2022-08-02T22:42:05.841Z,97961.29
2022-08-02T22:44:37.265Z,97965.94
2022-08-02T22:47:14.988Z,97969.30
2022-08-02T22:49:52.999Z,97968.64
2022-08-02T22:52:26.032Z,97967.57
2022-08-02T22:54:57.018Z,97965.31
2022-08-02T22:57:30.538Z,97966.46
2022-08-02T22:59:03.541Z,97956.58
2022-08-02T22:59:06.569Z,97966.04
2022-08-02T23:00:06.620Z,97966.05
2022-08-02T23:02:36.735Z,97967.23
2022-08-02T23:05:09.899Z,97970.73
2022-08-02T23:07:39.866Z,97965.34
2022-08-02T23:10:11.018Z,97966.16
2022-08-02T23:12:40.948Z,97965.95
2022-08-02T23:15:13.058Z,97966.65
2022-08-02T23:18:00.821Z,97967.00
2022-08-02T23:20:31.456Z,97965.60
2022-08-02T23:23:01.577Z,97962.30
2022-08-02T23:25:31.736Z,97960.09
2022-08-02T23:28:02.018Z,97957.95
2022-08-02T23:30:32.502Z,97959.12
2022-08-02T23:33:02.578Z,97957.04
2022-08-02T23:35:32.936Z,97951.57
2022-08-02T23:38:03.466Z,97948.39
2022-08-02T23:40:40.707Z,97946.58
2022-08-02T23:43:14.230Z,97948.02
2022-08-02T23:45:46.446Z,97947.34
2022-08-02T23:48:16.898Z,97944.08
2022-08-02T23:50:47.828Z,97941.25
2022-08-02T23:53:18.138Z,97941.08
2022-08-02T23:55:48.256Z,97942.59
2022-08-02T23:58:18.868Z,97941.73
